TimeEST,TemperatureF,Dew PointF,Humidity,Sea Level PressureIn,VisibilityMPH,Wind Direction,Wind SpeedMPH,Gust SpeedMPH,PrecipitationIn,Events,Conditions,WindDirDegrees,DateUTC
12:53 AM,39.9,28.9,65,30.19,10.0,SSW,3.5,-,N/A,,Overcast,200,2013-01-06 05:53:00
1:53 AM,39.9,28.9,65,30.19,10.0,SW,6.9,-,N/A,,Overcast,220,2013-01-06 06:53:00
2:53 AM,39.0,28.9,67,30.17,10.0,SW,8.1,-,N/A,,Overcast,220,2013-01-06 07:53:00
3:53 AM,39.9,28.9,65,30.16,10.0,SW,6.9,-,N/A,,Overcast,230,2013-01-06 08:53:00
4:53 AM,39.0,30.0,70,30.14,10.0,SW,6.9,-,N/A,,Overcast,230,2013-01-06 09:53:00
5:53 AM,39.0,30.9,73,30.13,10.0,SW,8.1,-,N/A,,Overcast,220,2013-01-06 10:53:00
6:53 AM,39.0,30.9,73,30.13,10.0,SW,9.2,-,N/A,,Overcast,220,2013-01-06 11:53:00
7:53 AM,39.9,32.0,73,30.14,10.0,SSW,5.8,-,N/A,,Overcast,210,2013-01-06 12:53:00
8:53 AM,39.9,32.0,73,30.14,10.0,SSW,6.9,-,N/A,,Overcast,210,2013-01-06 13:53:00
9:53 AM,39.9,33.1,77,30.15,10.0,SW,10.4,16.1,N/A,,Overcast,220,2013-01-06 14:53:00
10:28 AM,41.0,33.8,76,30.14,10.0,WSW,10.4,-,N/A,,Overcast,240,2013-01-06 15:28:00
10:53 AM,41.0,33.1,73,30.14,10.0,WSW,10.4,18.4,N/A,,Overcast,240,2013-01-06 15:53:00
11:53 AM,39.9,33.1,77,30.13,10.0,WSW,12.7,20.7,N/A,,Overcast,240,2013-01-06 16:53:00
12:53 PM,39.9,30.9,70,30.12,10.0,WSW,15.0,-,N/A,,Overcast,250,2013-01-06 17:53:00
1:04 PM,39.2,30.2,70,30.12,10.0,West,12.7,-,N/A,,Overcast,270,2013-01-06 18:04:00
1:26 PM,39.2,28.4,65,30.12,10.0,West,13.8,24.2,N/A,,Overcast,270,2013-01-06 18:26:00
1:53 PM,39.9,28.9,65,30.13,10.0,West,15.0,19.6,N/A,,Overcast,280,2013-01-06 18:53:00
2:53 PM,37.0,27.0,67,30.18,10.0,WNW,12.7,21.9,N/A,,Overcast,290,2013-01-06 19:53:00
3:11 PM,37.4,26.6,65,30.17,10.0,West,12.7,19.6,N/A,,Overcast,270,2013-01-06 20:11:00
3:53 PM,37.0,25.0,62,30.21,10.0,WNW,11.5,-,N/A,,Overcast,290,2013-01-06 20:53:00
4:53 PM,36.0,25.0,64,30.25,10.0,WNW,12.7,19.6,N/A,,Overcast,300,2013-01-06 21:53:00
5:53 PM,34.0,24.1,67,30.28,10.0,WNW,18.4,24.2,N/A,,Overcast,300,2013-01-06 22:53:00
6:53 PM,33.1,21.9,64,30.33,10.0,NW,11.5,-,N/A,,Overcast,320,2013-01-06 23:53:00
7:21 PM,32.0,21.2,64,30.33,9.0,WNW,12.7,-,N/A,,Overcast,300,2013-01-07 00:21:00
7:53 PM,32.0,21.9,66,30.36,9.0,WNW,10.4,-,N/A,,Overcast,290,2013-01-07 00:53:00
8:04 PM,32.0,21.2,64,30.35,9.0,NW,10.4,-,N/A,,Overcast,310,2013-01-07 01:04:00
8:53 PM,30.9,23.0,72,30.37,8.0,NW,5.8,-,N/A,,Overcast,310,2013-01-07 01:53:00
9:53 PM,30.9,21.9,69,30.40,7.0,WNW,10.4,-,N/A,,Overcast,300,2013-01-07 02:53:00
10:53 PM,27.0,21.0,78,30.41,7.0,WNW,5.8,-,N/A,,Clear,300,2013-01-07 03:53:00
11:53 PM,28.0,21.0,75,30.42,7.0,NW,3.5,-,N/A,,Clear,310,2013-01-07 04:53:00